sensor_id;sensor_type;location;lat;lon;timestamp;temperature;humidity
1359;DHT22;673;48.098;14.422;2023-07-20T00:00:10;19.10;99.90
1359;DHT22;673;48.098;14.422;2023-07-20T00:02:39;19.00;99.90
1359;DHT22;673;48.098;14.422;2023-07-20T00:05:06;18.90;99.90
1359;DHT22;673;48.098;14.422;2023-07-20T00:07:33;18.80;99.90
1359;DHT22;673;48.098;14.422;2023-07-20T00:10:00;18.80;99.90
1359;DHT22;673;48.098;14.422;2023-07-20T00:12:29;18.80;99.90
1359;DHT22;673;48.098;14.422;2023-07-20T00:14:55;18.80;99.90
1359;DHT22;673;48.098;14.422;2023-07-20T00:17:22;18.90;99.90
1359;DHT22;673;48.098;14.422;2023-07-20T00:19:49;18.90;99.90
1359;DHT22;673;48.098;14.422;2023-07-20T00:22:16;18.90;99.90
1359;DHT22;673;48.098;14.422;2023-07-20T00:24:43;18.80;99.90
1359;DHT22;673;48.098;14.422;2023-07-20T00:27:10;18.80;99.90
1359;DHT22;673;48.098;14.422;2023-07-20T00:29:38;18.80;99.90
1359;DHT22;673;48.098;14.422;2023-07-20T00:32:06;18.80;99.90
1359;DHT22;673;48.098;14.422;2023-07-20T00:34:33;18.70;99.90
1359;DHT22;673;48.098;14.422;2023-07-20T00:36:59;18.70;99.90
1359;DHT22;673;48.098;14.422;2023-07-20T00:39:26;18.70;99.90
1359;DHT22;673;48.098;14.422;2023-07-20T00:41:53;18.70;99.90
1359;DHT22;673;48.098;14.422;2023-07-20T00:44:20;18.70;99.90
1359;DHT22;673;48.098;14.422;2023-07-20T00:46:48;18.80;99.90
1359;DHT22;673;48.098;14.422;2023-07-20T00:49:16;18.80;99.90
1359;DHT22;673;48.098;14.422;2023-07-20T00:51:47;18.90;99.90
1359;DHT22;673;48.098;14.422;2023-07-20T00:54:14;18.80;99.90
1359;DHT22;673;48.098;14.422;2023-07-20T00:56:42;18.70;99.90
1359;DHT22;673;48.098;14.422;2023-07-20T00:59:09;18.70;99.90
1359;DHT22;673;48.098;14.422;2023-07-20T01:01:37;18.60;99.90
1359;DHT22;673;48.098;14.422;2023-07-20T01:04:05;18.50;99.90
1359;DHT22;673;48.098;14.422;2023-07-20T01:06:39;18.50;99.90
1359;DHT22;673;48.098;14.422;2023-07-20T01:09:13;18.50;99.90
1359;DHT22;673;48.098;14.422;2023-07-20T01:11:46;18.40;99.90
1359;DHT22;673;48.098;14.422;2023-07-20T01:14:17;18.50;99.90
1359;DHT22;673;48.098;14.422;2023-07-20T01:16:44;18.50;99.90
1359;DHT22;673;48.098;14.422;2023-07-20T01:19:13;18.50;99.90
1359;DHT22;673;48.098;14.422;2023-07-20T01:21:53;18.40;99.90
1359;DHT22;673;48.098;14.422;2023-07-20T01:24:38;18.40;99.90
1359;DHT22;673;48.098;14.422;2023-07-20T01:27:28;18.50;99.90
1359;DHT22;673;48.098;14.422;2023-07-20T01:30:18;18.30;99.90
1359;DHT22;673;48.098;14.422;2023-07-20T01:32:54;18.30;99.90
1359;DHT22;673;48.098;14.422;2023-07-20T01:35:23;18.20;99.90
1359;DHT22;673;48.098;14.422;2023-07-20T01:37:54;18.20;99.90
1359;DHT22;673;48.098;14.422;2023-07-20T01:40:22;18.20;99.90
1359;DHT22;673;48.098;14.422;2023-07-20T01:42:51;18.10;99.90
1359;DHT22;673;48.098;14.422;2023-07-20T01:45:18;18.10;99.90
1359;DHT22;673;48.098;14.422;2023-07-20T01:47:45;18.20;99.90
1359;DHT22;673;48.098;14.422;2023-07-20T01:50:13;18.30;99.90
1359;DHT22;673;48.098;14.422;2023-07-20T01:52:40;18.40;99.90
1359;DHT22;673;48.098;14.422;2023-07-20T01:55:08;18.40;99.90
1359;DHT22;673;48.098;14.422;2023-07-20T01:57:35;18.40;99.90
1359;DHT22;673;48.098;14.422;2023-07-20T02:00:02;18.40;99.90
1359;DHT22;673;48.098;14.422;2023-07-20T02:02:29;18.40;99.90
1359;DHT22;673;48.098;14.422;2023-07-20T02:04:56;18.40;99.90
1359;DHT22;673;48.098;14.422;2023-07-20T02:07:24;18.50;99.90
1359;DHT22;673;48.098;14.422;2023-07-20T02:09:51;18.50;99.90
1359;DHT22;673;48.098;14.422;2023-07-20T02:12:18;18.50;99.90
1359;DHT22;673;48.098;14.422;2023-07-20T02:14:45;18.60;99.90
1359;DHT22;673;48.098;14.422;2023-07-20T02:17:13;18.60;99.90
1359;DHT22;673;48.098;14.422;2023-07-20T02:19:41;18.60;99.90
1359;DHT22;673;48.098;14.422;2023-07-20T02:22:08;18.60;99.90
1359;DHT22;673;48.098;14.422;2023-07-20T02:24:36;18.70;99.90
1359;DHT22;673;48.098;14.422;2023-07-20T02:27:03;18.60;99.90
1359;DHT22;673;48.098;14.422;2023-07-20T02:29:30;18.50;99.90
1359;DHT22;673;48.098;14.422;2023-07-20T02:31:57;18.50;99.90
1359;DHT22;673;48.098;14.422;2023-07-20T02:34:24;18.40;99.90
1359;DHT22;673;48.098;14.422;2023-07-20T02:36:51;18.40;99.90
1359;DHT22;673;48.098;14.422;2023-07-20T02:39:18;18.20;99.90
1359;DHT22;673;48.098;14.422;2023-07-20T02:41:46;18.20;99.90
1359;DHT22;673;48.098;14.422;2023-07-20T02:44:14;18.20;99.90
1359;DHT22;673;48.098;14.422;2023-07-20T02:46:41;18.00;99.90
1359;DHT22;673;48.098;14.422;2023-07-20T02:49:08;18.00;99.90
1359;DHT22;673;48.098;14.422;2023-07-20T02:51:35;18.00;99.90
1359;DHT22;673;48.098;14.422;2023-07-20T02:54:02;18.00;99.90
1359;DHT22;673;48.098;14.422;2023-07-20T02:56:29;18.00;99.90
1359;DHT22;673;48.098;14.422;2023-07-20T02:58:57;18.00;99.90
1359;DHT22;673;48.098;14.422;2023-07-20T03:01:25;18.00;99.90
1359;DHT22;673;48.098;14.422;2023-07-20T03:03:54;18.00;99.90
1359;DHT22;673;48.098;14.422;2023-07-20T03:06:21;18.00;99.90
1359;DHT22;673;48.098;14.422;2023-07-20T03:08:48;18.00;99.90
1359;DHT22;673;48.098;14.422;2023-07-20T03:11:19;17.90;99.90
1359;DHT22;673;48.098;14.422;2023-07-20T03:13:47;17.90;99.90
1359;DHT22;673;48.098;14.422;2023-07-20T03:16:17;17.90;99.90
1359;DHT22;673;48.098;14.422;2023-07-20T03:18:45;18.00;99.90
1359;DHT22;673;48.098;14.422;2023-07-20T03:21:12;18.00;99.90
1359;DHT22;673;48.098;14.422;2023-07-20T03:23:40;18.10;99.90
1359;DHT22;673;48.098;14.422;2023-07-20T03:26:07;18.10;99.90
1359;DHT22;673;48.098;14.422;2023-07-20T03:28:34;18.20;99.90
1359;DHT22;673;48.098;14.422;2023-07-20T03:31:01;18.20;99.90
1359;DHT22;673;48.098;14.422;2023-07-20T03:33:30;18.20;99.90
1359;DHT22;673;48.098;14.422;2023-07-20T03:35:58;18.20;99.90
1359;DHT22;673;48.098;14.422;2023-07-20T03:38:25;18.10;99.90
1359;DHT22;673;48.098;14.422;2023-07-20T03:40:54;18.10;99.90
1359;DHT22;673;48.098;14.422;2023-07-20T03:43:21;18.20;99.90
1359;DHT22;673;48.098;14.422;2023-07-20T03:45:51;18.20;99.90
1359;DHT22;673;48.098;14.422;2023-07-20T03:48:19;18.30;99.90
1359;DHT22;673;48.098;14.422;2023-07-20T03:50:49;18.20;99.90
1359;DHT22;673;48.098;14.422;2023-07-20T03:53:17;18.10;99.90
1359;DHT22;673;48.098;14.422;2023-07-20T03:55:45;18.10;99.90
1359;DHT22;673;48.098;14.422;2023-07-20T03:58:12;18.20;99.90
1359;DHT22;673;48.098;14.422;2023-07-20T04:00:39;18.20;99.90
1359;DHT22;673;48.098;14.422;2023-07-20T04:03:06;18.30;99.90
1359;DHT22;673;48.098;14.422;2023-07-20T04:05:33;18.40;99.90
1359;DHT22;673;48.098;14.422;2023-07-20T04:08:01;18.40;99.90
1359;DHT22;673;48.098;14.422;2023-07-20T04:10:28;18.50;99.90
1359;DHT22;673;48.098;14.422;2023-07-20T04:12:55;18.60;99.90
1359;DHT22;673;48.098;14.422;2023-07-20T04:15:22;18.70;99.90
1359;DHT22;673;48.098;14.422;2023-07-20T04:17:49;18.80;99.90
1359;DHT22;673;48.098;14.422;2023-07-20T04:20:16;18.80;99.90
1359;DHT22;673;48.098;14.422;2023-07-20T04:22:43;18.80;99.90
1359;DHT22;673;48.098;14.422;2023-07-20T04:25:12;18.80;99.90
1359;DHT22;673;48.098;14.422;2023-07-20T04:27:39;18.80;99.90
1359;DHT22;673;48.098;14.422;2023-07-20T04:30:07;18.90;99.90
1359;DHT22;673;48.098;14.422;2023-07-20T04:32:34;18.90;99.90
1359;DHT22;673;48.098;14.422;2023-07-20T04:35:06;18.90;99.90
1359;DHT22;673;48.098;14.422;2023-07-20T04:37:33;18.80;99.90
1359;DHT22;673;48.098;14.422;2023-07-20T04:40:00;19.00;99.90
1359;DHT22;673;48.098;14.422;2023-07-20T04:42:29;19.00;99.90
1359;DHT22;673;48.098;14.422;2023-07-20T04:44:56;19.10;99.90
1359;DHT22;673;48.098;14.422;2023-07-20T04:47:23;19.10;99.90
1359;DHT22;673;48.098;14.422;2023-07-20T04:49:50;19.10;99.90
1359;DHT22;673;48.098;14.422;2023-07-20T04:52:16;19.20;99.90
1359;DHT22;673;48.098;14.422;2023-07-20T04:54:43;19.30;99.90
1359;DHT22;673;48.098;14.422;2023-07-20T04:57:11;19.40;99.90
1359;DHT22;673;48.098;14.422;2023-07-20T04:59:39;19.40;99.90
1359;DHT22;673;48.098;14.422;2023-07-20T05:02:06;19.40;99.90
1359;DHT22;673;48.098;14.422;2023-07-20T05:04:33;19.50;99.90
1359;DHT22;673;48.098;14.422;2023-07-20T05:07:00;19.50;99.90
1359;DHT22;673;48.098;14.422;2023-07-20T05:09:27;19.40;99.90
1359;DHT22;673;48.098;14.422;2023-07-20T05:11:54;19.50;99.90
1359;DHT22;673;48.098;14.422;2023-07-20T05:14:21;19.60;99.90
1359;DHT22;673;48.098;14.422;2023-07-20T05:16:49;19.70;99.90
1359;DHT22;673;48.098;14.422;2023-07-20T05:19:16;19.70;99.90
1359;DHT22;673;48.098;14.422;2023-07-20T05:21:43;19.80;99.90
1359;DHT22;673;48.098;14.422;2023-07-20T05:24:10;19.90;99.90
1359;DHT22;673;48.098;14.422;2023-07-20T05:26:37;19.90;99.90
1359;DHT22;673;48.098;14.422;2023-07-20T05:29:04;19.70;99.90
1359;DHT22;673;48.098;14.422;2023-07-20T05:31:31;19.80;99.90
1359;DHT22;673;48.098;14.422;2023-07-20T05:33:59;20.00;99.90
1359;DHT22;673;48.098;14.422;2023-07-20T05:36:26;20.10;99.90
1359;DHT22;673;48.098;14.422;2023-07-20T05:38:53;20.40;99.90
1359;DHT22;673;48.098;14.422;2023-07-20T05:41:20;20.60;99.90
1359;DHT22;673;48.098;14.422;2023-07-20T05:43:48;20.80;99.90
1359;DHT22;673;48.098;14.422;2023-07-20T05:46:15;21.00;99.90
1359;DHT22;673;48.098;14.422;2023-07-20T05:48:42;21.10;99.90
1359;DHT22;673;48.098;14.422;2023-07-20T05:51:10;21.10;99.90
1359;DHT22;673;48.098;14.422;2023-07-20T05:53:37;21.20;99.90
1359;DHT22;673;48.098;14.422;2023-07-20T05:56:05;21.20;99.90
1359;DHT22;673;48.098;14.422;2023-07-20T05:58:35;21.20;99.90
1359;DHT22;673;48.098;14.422;2023-07-20T06:01:04;21.20;99.90
1359;DHT22;673;48.098;14.422;2023-07-20T06:03:32;21.20;99.90
1359;DHT22;673;48.098;14.422;2023-07-20T06:05:59;21.20;99.90
1359;DHT22;673;48.098;14.422;2023-07-20T06:08:28;21.20;99.90
1359;DHT22;673;48.098;14.422;2023-07-20T06:10:55;21.00;99.90
1359;DHT22;673;48.098;14.422;2023-07-20T06:13:23;20.80;99.90
1359;DHT22;673;48.098;14.422;2023-07-20T06:15:50;20.60;99.90
1359;DHT22;673;48.098;14.422;2023-07-20T06:18:17;20.60;99.90
1359;DHT22;673;48.098;14.422;2023-07-20T06:20:49;20.50;99.90
1359;DHT22;673;48.098;14.422;2023-07-20T06:23:16;20.60;99.90
1359;DHT22;673;48.098;14.422;2023-07-20T06:25:47;20.80;99.90
1359;DHT22;673;48.098;14.422;2023-07-20T06:28:14;20.70;99.90
1359;DHT22;673;48.098;14.422;2023-07-20T06:30:41;20.90;99.90
1359;DHT22;673;48.098;14.422;2023-07-20T06:33:08;20.80;99.90
1359;DHT22;673;48.098;14.422;2023-07-20T06:35:35;20.90;99.90
1359;DHT22;673;48.098;14.422;2023-07-20T06:38:02;20.90;99.90
1359;DHT22;673;48.098;14.422;2023-07-20T06:40:29;20.90;99.90
1359;DHT22;673;48.098;14.422;2023-07-20T06:42:57;20.90;99.90
1359;DHT22;673;48.098;14.422;2023-07-20T06:45:24;21.10;99.90
1359;DHT22;673;48.098;14.422;2023-07-20T06:47:51;21.20;99.90
1359;DHT22;673;48.098;14.422;2023-07-20T06:50:18;21.40;99.90
1359;DHT22;673;48.098;14.422;2023-07-20T06:52:45;21.50;99.90
1359;DHT22;673;48.098;14.422;2023-07-20T06:55:13;21.30;99.90
1359;DHT22;673;48.098;14.422;2023-07-20T06:57:40;21.30;99.90
1359;DHT22;673;48.098;14.422;2023-07-20T07:00:10;21.70;99.90
1359;DHT22;673;48.098;14.422;2023-07-20T07:02:38;21.80;99.90
1359;DHT22;673;48.098;14.422;2023-07-20T07:05:05;21.60;99.90
1359;DHT22;673;48.098;14.422;2023-07-20T07:07:32;21.40;99.90
1359;DHT22;673;48.098;14.422;2023-07-20T07:10:00;21.10;99.90
1359;DHT22;673;48.098;14.422;2023-07-20T07:12:29;21.10;99.90
1359;DHT22;673;48.098;14.422;2023-07-20T07:14:56;21.20;99.90
1359;DHT22;673;48.098;14.422;2023-07-20T07:17:25;21.10;99.90
1359;DHT22;673;48.098;14.422;2023-07-20T07:19:52;21.10;99.90
1359;DHT22;673;48.098;14.422;2023-07-20T07:22:20;21.20;99.90
1359;DHT22;673;48.098;14.422;2023-07-20T07:24:47;21.10;99.90
1359;DHT22;673;48.098;14.422;2023-07-20T07:27:14;21.20;99.90
1359;DHT22;673;48.098;14.422;2023-07-20T07:29:41;21.40;99.90
1359;DHT22;673;48.098;14.422;2023-07-20T07:32:09;21.50;99.90
1359;DHT22;673;48.098;14.422;2023-07-20T07:34:38;21.40;99.90
1359;DHT22;673;48.098;14.422;2023-07-20T07:37:05;21.30;99.90
1359;DHT22;673;48.098;14.422;2023-07-20T07:39:32;21.30;99.90
1359;DHT22;673;48.098;14.422;2023-07-20T07:41:59;21.10;99.90
1359;DHT22;673;48.098;14.422;2023-07-20T07:44:26;21.20;99.90
1359;DHT22;673;48.098;14.422;2023-07-20T07:46:53;21.50;99.90
1359;DHT22;673;48.098;14.422;2023-07-20T07:49:20;21.30;99.90
1359;DHT22;673;48.098;14.422;2023-07-20T07:51:48;21.20;99.90
1359;DHT22;673;48.098;14.422;2023-07-20T07:54:15;21.10;99.90
1359;DHT22;673;48.098;14.422;2023-07-20T07:56:42;21.20;99.90
1359;DHT22;673;48.098;14.422;2023-07-20T07:59:10;21.30;99.90
1359;DHT22;673;48.098;14.422;2023-07-20T08:01:37;21.30;99.90
1359;DHT22;673;48.098;14.422;2023-07-20T08:04:04;21.30;99.90
1359;DHT22;673;48.098;14.422;2023-07-20T08:06:31;21.30;99.90
1359;DHT22;673;48.098;14.422;2023-07-20T08:08:59;21.50;99.90
1359;DHT22;673;48.098;14.422;2023-07-20T08:11:26;21.30;99.90
1359;DHT22;673;48.098;14.422;2023-07-20T08:13:53;21.30;99.90
1359;DHT22;673;48.098;14.422;2023-07-20T08:16:20;21.30;99.90
1359;DHT22;673;48.098;14.422;2023-07-20T08:18:47;21.30;99.90
1359;DHT22;673;48.098;14.422;2023-07-20T08:21:14;21.50;99.90
1359;DHT22;673;48.098;14.422;2023-07-20T08:23:41;21.70;99.90
1359;DHT22;673;48.098;14.422;2023-07-20T08:26:09;21.60;99.90
1359;DHT22;673;48.098;14.422;2023-07-20T08:28:36;21.50;99.90
1359;DHT22;673;48.098;14.422;2023-07-20T08:31:05;21.20;99.90
1359;DHT22;673;48.098;14.422;2023-07-20T08:33:32;20.90;99.90
1359;DHT22;673;48.098;14.422;2023-07-20T08:36:00;20.90;99.90
1359;DHT22;673;48.098;14.422;2023-07-20T08:38:29;20.70;99.90
1359;DHT22;673;48.098;14.422;2023-07-20T08:40:56;20.70;99.90
1359;DHT22;673;48.098;14.422;2023-07-20T08:43:27;20.80;99.90
1359;DHT22;673;48.098;14.422;2023-07-20T08:45:55;20.80;99.90
1359;DHT22;673;48.098;14.422;2023-07-20T08:48:22;20.70;99.90
1359;DHT22;673;48.098;14.422;2023-07-20T08:50:51;20.90;99.90
1359;DHT22;673;48.098;14.422;2023-07-20T08:53:19;21.10;99.90
1359;DHT22;673;48.098;14.422;2023-07-20T08:55:48;21.40;99.90
1359;DHT22;673;48.098;14.422;2023-07-20T08:58:17;21.80;99.90
1359;DHT22;673;48.098;14.422;2023-07-20T09:00:45;22.00;99.90
1359;DHT22;673;48.098;14.422;2023-07-20T09:03:17;22.40;99.90
1359;DHT22;673;48.098;14.422;2023-07-20T09:05:45;22.80;99.90
1359;DHT22;673;48.098;14.422;2023-07-20T09:08:12;23.40;99.90
1359;DHT22;673;48.098;14.422;2023-07-20T09:10:39;23.80;99.90
1359;DHT22;673;48.098;14.422;2023-07-20T09:13:05;23.60;99.90
1359;DHT22;673;48.098;14.422;2023-07-20T09:15:33;23.60;99.60
1359;DHT22;673;48.098;14.422;2023-07-20T09:18:02;23.40;99.90
1359;DHT22;673;48.098;14.422;2023-07-20T09:20:32;23.30;99.20
1359;DHT22;673;48.098;14.422;2023-07-20T09:23:00;23.60;99.50
1359;DHT22;673;48.098;14.422;2023-07-20T09:25:30;23.70;97.70
1359;DHT22;673;48.098;14.422;2023-07-20T09:28:02;23.90;98.20
1359;DHT22;673;48.098;14.422;2023-07-20T09:30:29;23.40;97.70
1359;DHT22;673;48.098;14.422;2023-07-20T09:32:56;23.10;97.60
1359;DHT22;673;48.098;14.422;2023-07-20T09:35:25;23.30;99.30
1359;DHT22;673;48.098;14.422;2023-07-20T09:37:54;23.40;99.20
1359;DHT22;673;48.098;14.422;2023-07-20T09:40:22;23.90;97.90
1359;DHT22;673;48.098;14.422;2023-07-20T09:42:52;23.80;96.90
1359;DHT22;673;48.098;14.422;2023-07-20T09:45:19;23.50;96.50
1359;DHT22;673;48.098;14.422;2023-07-20T09:47:46;23.30;97.10
1359;DHT22;673;48.098;14.422;2023-07-20T09:50:13;23.60;97.40
1359;DHT22;673;48.098;14.422;2023-07-20T09:52:41;23.60;96.70
1359;DHT22;673;48.098;14.422;2023-07-20T09:55:10;23.50;97.00
1359;DHT22;673;48.098;14.422;2023-07-20T09:57:38;24.00;97.80
1359;DHT22;673;48.098;14.422;2023-07-20T10:00:07;24.20;97.00
1359;DHT22;673;48.098;14.422;2023-07-20T10:02:41;23.30;95.80
1359;DHT22;673;48.098;14.422;2023-07-20T10:05:11;22.70;97.30
1359;DHT22;673;48.098;14.422;2023-07-20T10:07:45;22.60;98.50
1359;DHT22;673;48.098;14.422;2023-07-20T10:10:15;23.20;98.00
1359;DHT22;673;48.098;14.422;2023-07-20T10:12:45;23.60;96.80
1359;DHT22;673;48.098;14.422;2023-07-20T10:15:17;23.90;95.60
1359;DHT22;673;48.098;14.422;2023-07-20T10:17:57;24.00;95.40
1359;DHT22;673;48.098;14.422;2023-07-20T10:20:27;23.90;95.70
1359;DHT22;673;48.098;14.422;2023-07-20T10:22:57;24.60;95.10
1359;DHT22;673;48.098;14.422;2023-07-20T10:25:24;24.90;95.40
1359;DHT22;673;48.098;14.422;2023-07-20T10:27:51;25.40;94.30
1359;DHT22;673;48.098;14.422;2023-07-20T10:30:18;26.00;90.40
1359;DHT22;673;48.098;14.422;2023-07-20T10:32:47;26.20;90.00
1359;DHT22;673;48.098;14.422;2023-07-20T10:35:15;25.30;84.10
1359;DHT22;673;48.098;14.422;2023-07-20T10:37:47;24.60;85.70
1359;DHT22;673;48.098;14.422;2023-07-20T10:40:27;24.20;89.10
1359;DHT22;673;48.098;14.422;2023-07-20T10:43:00;23.90;90.50
1359;DHT22;673;48.098;14.422;2023-07-20T10:45:39;23.70;91.50
1359;DHT22;673;48.098;14.422;2023-07-20T10:48:13;23.50;93.10
1359;DHT22;673;48.098;14.422;2023-07-20T10:50:41;23.40;94.60
1359;DHT22;673;48.098;14.422;2023-07-20T10:53:13;23.30;93.70
1359;DHT22;673;48.098;14.422;2023-07-20T10:55:42;23.40;93.30
1359;DHT22;673;48.098;14.422;2023-07-20T10:58:12;23.60;93.60
1359;DHT22;673;48.098;14.422;2023-07-20T11:00:56;23.90;92.80
1359;DHT22;673;48.098;14.422;2023-07-20T11:03:28;24.00;91.90
1359;DHT22;673;48.098;14.422;2023-07-20T11:05:57;24.10;90.80
1359;DHT22;673;48.098;14.422;2023-07-20T11:08:40;24.30;91.50
1359;DHT22;673;48.098;14.422;2023-07-20T11:11:25;24.50;90.70
1359;DHT22;673;48.098;14.422;2023-07-20T11:13:57;24.30;88.20
1359;DHT22;673;48.098;14.422;2023-07-20T11:16:38;24.10;90.30
1359;DHT22;673;48.098;14.422;2023-07-20T11:19:13;24.00;90.10
1359;DHT22;673;48.098;14.422;2023-07-20T11:21:42;24.30;90.20
1359;DHT22;673;48.098;14.422;2023-07-20T11:24:09;24.30;90.20
1359;DHT22;673;48.098;14.422;2023-07-20T11:26:44;24.80;91.80
1359;DHT22;673;48.098;14.422;2023-07-20T11:29:12;25.20;90.50
1359;DHT22;673;48.098;14.422;2023-07-20T11:31:39;25.00;87.30
1359;DHT22;673;48.098;14.422;2023-07-20T11:34:09;24.80;89.80
1359;DHT22;673;48.098;14.422;2023-07-20T11:36:36;25.00;89.10
1359;DHT22;673;48.098;14.422;2023-07-20T11:39:03;24.60;90.30
1359;DHT22;673;48.098;14.422;2023-07-20T11:41:31;24.40;89.10
1359;DHT22;673;48.098;14.422;2023-07-20T11:43:59;24.20;89.20
1359;DHT22;673;48.098;14.422;2023-07-20T11:46:28;24.00;87.60
1359;DHT22;673;48.098;14.422;2023-07-20T11:48:57;24.10;90.10
1359;DHT22;673;48.098;14.422;2023-07-20T11:51:26;24.30;90.50
1359;DHT22;673;48.098;14.422;2023-07-20T11:53:53;24.60;91.20
1359;DHT22;673;48.098;14.422;2023-07-20T11:56:20;24.70;91.60
1359;DHT22;673;48.098;14.422;2023-07-20T11:58:47;25.00;91.00
1359;DHT22;673;48.098;14.422;2023-07-20T12:01:17;25.00;88.30
1359;DHT22;673;48.098;14.422;2023-07-20T12:03:47;24.90;82.30
1359;DHT22;673;48.098;14.422;2023-07-20T12:06:14;25.10;81.30
1359;DHT22;673;48.098;14.422;2023-07-20T12:08:42;25.10;79.90
1359;DHT22;673;48.098;14.422;2023-07-20T12:11:10;25.80;80.90
1359;DHT22;673;48.098;14.422;2023-07-20T12:13:38;25.80;76.70
1359;DHT22;673;48.098;14.422;2023-07-20T12:16:12;25.10;77.90
1359;DHT22;673;48.098;14.422;2023-07-20T12:18:41;25.10;81.70
1359;DHT22;673;48.098;14.422;2023-07-20T12:21:08;25.20;77.00
1359;DHT22;673;48.098;14.422;2023-07-20T12:23:36;25.60;77.80
1359;DHT22;673;48.098;14.422;2023-07-20T12:26:06;25.80;76.30
1359;DHT22;673;48.098;14.422;2023-07-20T12:28:38;26.30;79.60
1359;DHT22;673;48.098;14.422;2023-07-20T12:31:05;26.50;75.50
1359;DHT22;673;48.098;14.422;2023-07-20T12:33:32;26.50;73.30
1359;DHT22;673;48.098;14.422;2023-07-20T12:36:00;26.70;72.10
1359;DHT22;673;48.098;14.422;2023-07-20T12:38:27;26.30;72.80
1359;DHT22;673;48.098;14.422;2023-07-20T12:40:56;26.10;72.90
1359;DHT22;673;48.098;14.422;2023-07-20T12:43:24;26.00;72.80
1359;DHT22;673;48.098;14.422;2023-07-20T12:45:51;25.90;73.60
1359;DHT22;673;48.098;14.422;2023-07-20T12:48:18;26.00;76.20
1359;DHT22;673;48.098;14.422;2023-07-20T12:50:45;26.20;73.90
1359;DHT22;673;48.098;14.422;2023-07-20T12:53:13;26.20;76.50
1359;DHT22;673;48.098;14.422;2023-07-20T12:55:41;25.60;73.40
1359;DHT22;673;48.098;14.422;2023-07-20T12:58:08;25.40;75.10
1359;DHT22;673;48.098;14.422;2023-07-20T13:00:35;25.10;72.20
1359;DHT22;673;48.098;14.422;2023-07-20T13:03:02;24.90;74.30
1359;DHT22;673;48.098;14.422;2023-07-20T13:05:30;24.70;75.00
1359;DHT22;673;48.098;14.422;2023-07-20T13:07:58;24.50;73.30
1359;DHT22;673;48.098;14.422;2023-07-20T13:10:27;24.70;72.50
1359;DHT22;673;48.098;14.422;2023-07-20T13:12:54;25.00;73.80
1359;DHT22;673;48.098;14.422;2023-07-20T13:15:24;25.00;73.40
1359;DHT22;673;48.098;14.422;2023-07-20T13:17:55;24.90;73.70
1359;DHT22;673;48.098;14.422;2023-07-20T13:20:22;24.90;76.90
1359;DHT22;673;48.098;14.422;2023-07-20T13:22:49;24.90;78.00
1359;DHT22;673;48.098;14.422;2023-07-20T13:25:16;24.90;79.40
1359;DHT22;673;48.098;14.422;2023-07-20T13:27:45;25.50;79.20
1359;DHT22;673;48.098;14.422;2023-07-20T13:30:13;25.50;75.90
1359;DHT22;673;48.098;14.422;2023-07-20T13:32:42;25.90;70.30
1359;DHT22;673;48.098;14.422;2023-07-20T13:35:09;26.00;71.50
1359;DHT22;673;48.098;14.422;2023-07-20T13:37:36;25.90;71.80
1359;DHT22;673;48.098;14.422;2023-07-20T13:40:04;25.60;69.70
1359;DHT22;673;48.098;14.422;2023-07-20T13:42:31;25.80;70.70
1359;DHT22;673;48.098;14.422;2023-07-20T13:45:00;25.90;69.10
1359;DHT22;673;48.098;14.422;2023-07-20T13:47:27;26.30;69.00
1359;DHT22;673;48.098;14.422;2023-07-20T13:49:54;26.20;69.40
1359;DHT22;673;48.098;14.422;2023-07-20T13:52:22;26.10;68.50
1359;DHT22;673;48.098;14.422;2023-07-20T13:54:48;25.40;69.30
1359;DHT22;673;48.098;14.422;2023-07-20T13:57:15;25.00;72.70
1359;DHT22;673;48.098;14.422;2023-07-20T13:59:42;25.50;71.60
1359;DHT22;673;48.098;14.422;2023-07-20T14:02:11;25.50;70.10
1359;DHT22;673;48.098;14.422;2023-07-20T14:04:38;25.50;68.10
1359;DHT22;673;48.098;14.422;2023-07-20T14:07:06;25.50;69.30
1359;DHT22;673;48.098;14.422;2023-07-20T14:09:33;25.90;69.00
1359;DHT22;673;48.098;14.422;2023-07-20T14:11:59;25.90;71.30
1359;DHT22;673;48.098;14.422;2023-07-20T14:14:26;26.00;68.90
1359;DHT22;673;48.098;14.422;2023-07-20T14:16:53;26.00;66.60
1359;DHT22;673;48.098;14.422;2023-07-20T14:19:23;25.70;67.00
1359;DHT22;673;48.098;14.422;2023-07-20T14:21:50;25.70;68.70
1359;DHT22;673;48.098;14.422;2023-07-20T14:24:17;25.70;67.50
1359;DHT22;673;48.098;14.422;2023-07-20T14:26:44;25.30;68.00
1359;DHT22;673;48.098;14.422;2023-07-20T14:29:10;25.30;68.30
1359;DHT22;673;48.098;14.422;2023-07-20T14:31:37;25.30;71.40
1359;DHT22;673;48.098;14.422;2023-07-20T14:34:04;25.20;73.20
1359;DHT22;673;48.098;14.422;2023-07-20T14:36:32;25.10;74.40
1359;DHT22;673;48.098;14.422;2023-07-20T14:38:59;25.50;74.00
1359;DHT22;673;48.098;14.422;2023-07-20T14:41:26;25.80;70.70
1359;DHT22;673;48.098;14.422;2023-07-20T14:43:53;25.90;69.80
1359;DHT22;673;48.098;14.422;2023-07-20T14:46:20;25.90;72.30
1359;DHT22;673;48.098;14.422;2023-07-20T14:48:47;26.30;69.80
1359;DHT22;673;48.098;14.422;2023-07-20T14:51:14;26.60;68.60
1359;DHT22;673;48.098;14.422;2023-07-20T14:53:43;26.50;65.40
1359;DHT22;673;48.098;14.422;2023-07-20T14:56:10;26.50;70.30
1359;DHT22;673;48.098;14.422;2023-07-20T14:58:36;26.60;67.40
1359;DHT22;673;48.098;14.422;2023-07-20T15:01:03;26.70;66.30
1359;DHT22;673;48.098;14.422;2023-07-20T15:03:30;26.60;66.20
1359;DHT22;673;48.098;14.422;2023-07-20T15:05:57;26.40;66.70
1359;DHT22;673;48.098;14.422;2023-07-20T15:08:24;26.90;68.20
1359;DHT22;673;48.098;14.422;2023-07-20T15:10:53;26.90;64.60
1359;DHT22;673;48.098;14.422;2023-07-20T15:13:20;27.10;65.80
1359;DHT22;673;48.098;14.422;2023-07-20T15:15:49;27.20;64.90
1359;DHT22;673;48.098;14.422;2023-07-20T15:18:16;27.70;63.00
1359;DHT22;673;48.098;14.422;2023-07-20T15:20:42;27.80;61.00
1359;DHT22;673;48.098;14.422;2023-07-20T15:23:09;27.80;64.30
1359;DHT22;673;48.098;14.422;2023-07-20T15:25:45;27.80;60.80
1359;DHT22;673;48.098;14.422;2023-07-20T15:28:18;27.80;60.60
1359;DHT22;673;48.098;14.422;2023-07-20T15:30:45;27.90;59.80
1359;DHT22;673;48.098;14.422;2023-07-20T15:33:11;27.90;58.70
1359;DHT22;673;48.098;14.422;2023-07-20T15:35:39;27.80;57.90
1359;DHT22;673;48.098;14.422;2023-07-20T15:38:06;27.90;57.40
1359;DHT22;673;48.098;14.422;2023-07-20T15:40:33;27.60;58.40
1359;DHT22;673;48.098;14.422;2023-07-20T15:43:00;27.50;57.60
1359;DHT22;673;48.098;14.422;2023-07-20T15:45:29;27.30;57.10
1359;DHT22;673;48.098;14.422;2023-07-20T15:47:56;26.50;58.20
1359;DHT22;673;48.098;14.422;2023-07-20T15:50:23;26.70;58.10
1359;DHT22;673;48.098;14.422;2023-07-20T15:52:50;27.30;59.40
1359;DHT22;673;48.098;14.422;2023-07-20T15:55:17;27.50;58.60
1359;DHT22;673;48.098;14.422;2023-07-20T15:57:44;28.00;55.10
1359;DHT22;673;48.098;14.422;2023-07-20T16:00:12;27.80;55.20
1359;DHT22;673;48.098;14.422;2023-07-20T16:02:40;27.10;54.50
1359;DHT22;673;48.098;14.422;2023-07-20T16:05:08;26.30;56.70
1359;DHT22;673;48.098;14.422;2023-07-20T16:07:35;25.90;57.20